ePrivacy and GPDR Cookie Consent by Cookie Consent
EmailTwitter


Observations de surface / France / LFBD (07510)

Régions: Québec | Canada | États-Unis | Europe | France | UK | Ailleurs
Station
Affichage
Infos & localisation pour LFBD (07510) | Aide pour décoder les METARs

Observations prises le 2022-09-30 à 18H30 UTC à BORDEAUX/MERIGNA, FR (LFBD)

Température: 15.0 Celsius

Point de rosée: 9.0 Celsius

Humidité relative: 67%

Vents: Sud-ouest à 6 km/h ou 3 noeuds.

Pression au niveau moyen de la mer: 101.80 kilopascals.

Observation METAR:

LFBD 301830Z AUTO 24003KT CAVOK 15/09 Q1018 NOSIG=